sensor_id;sensor_type;location;lat;lon;timestamp;pressure;altitude;pressure_sealevel;temperature;humidity
30744;BME280;17486;46.738;7.622;2022-11-23T00:01:27;94049.84;;;7.49;54.57
30744;BME280;17486;46.738;7.622;2022-11-23T00:03:55;94022.25;;;7.33;54.51
30744;BME280;17486;46.738;7.622;2022-11-23T00:06:22;94048.09;;;7.49;54.36
30744;BME280;17486;46.738;7.622;2022-11-23T00:08:49;94035.44;;;7.44;54.54
30744;BME280;17486;46.738;7.622;2022-11-23T00:11:15;94008.94;;;7.25;54.39
30744;BME280;17486;46.738;7.622;2022-11-23T00:13:41;94039.94;;;7.41;54.50
30744;BME280;17486;46.738;7.622;2022-11-23T00:16:08;94033.09;;;7.40;54.35
30744;BME280;17486;46.738;7.622;2022-11-23T00:18:34;94010.97;;;7.20;54.78
30744;BME280;17486;46.738;7.622;2022-11-23T00:21:04;94037.59;;;7.36;54.69
30744;BME280;17486;46.738;7.622;2022-11-23T00:23:29;94015.03;;;7.24;54.87
30744;BME280;17486;46.738;7.622;2022-11-23T00:25:54;93995.78;;;7.13;54.96
30744;BME280;17486;46.738;7.622;2022-11-23T00:28:20;94006.97;;;7.14;55.08
30744;BME280;17486;46.738;7.622;2022-11-23T00:30:49;93993.72;;;7.04;54.92
30744;BME280;17486;46.738;7.622;2022-11-23T00:33:15;94010.28;;;7.16;54.88
30744;BME280;17486;46.738;7.622;2022-11-23T00:35:40;94043.28;;;7.27;55.43
30744;BME280;17486;46.738;7.622;2022-11-23T00:38:06;94047.81;;;7.23;55.07
30744;BME280;17486;46.738;7.622;2022-11-23T00:40:31;94037.72;;;7.19;55.42
30744;BME280;17486;46.738;7.622;2022-11-23T00:42:56;94003.66;;;6.96;55.50
30744;BME280;17486;46.738;7.622;2022-11-23T00:45:22;94039.59;;;7.17;55.15
30744;BME280;17486;46.738;7.622;2022-11-23T00:47:47;94001.31;;;6.91;55.39
30744;BME280;17486;46.738;7.622;2022-11-23T00:50:13;94046.91;;;7.08;55.19
30744;BME280;17486;46.738;7.622;2022-11-23T00:52:38;94037.84;;;7.01;55.78
30744;BME280;17486;46.738;7.622;2022-11-23T00:55:04;94036.25;;;6.99;55.58
30744;BME280;17486;46.738;7.622;2022-11-23T00:57:29;94045.16;;;6.93;55.91
30744;BME280;17486;46.738;7.622;2022-11-23T00:59:55;94033.09;;;6.93;55.85
30744;BME280;17486;46.738;7.622;2022-11-23T01:02:20;94036.84;;;6.88;55.35
30744;BME280;17486;46.738;7.622;2022-11-23T01:04:45;94004.50;;;6.64;56.26
30744;BME280;17486;46.738;7.622;2022-11-23T01:07:11;94037.50;;;6.75;56.01
30744;BME280;17486;46.738;7.622;2022-11-23T01:09:36;94021.41;;;6.70;55.65
30744;BME280;17486;46.738;7.622;2022-11-23T01:12:02;93991.34;;;6.37;55.83
30744;BME280;17486;46.738;7.622;2022-11-23T01:14:27;94023.66;;;6.44;56.11
30744;BME280;17486;46.738;7.622;2022-11-23T01:16:53;94033.22;;;6.26;56.14
30744;BME280;17486;46.738;7.622;2022-11-23T01:19:19;93999.47;;;5.96;56.80
30744;BME280;17486;46.738;7.622;2022-11-23T01:21:44;93994.56;;;5.91;56.54
30744;BME280;17486;46.738;7.622;2022-11-23T01:24:21;94021.19;;;6.09;56.68
30744;BME280;17486;46.738;7.622;2022-11-23T01:26:54;94019.25;;;6.13;56.74
30744;BME280;17486;46.738;7.622;2022-11-23T01:29:20;94030.13;;;6.20;56.81
30744;BME280;17486;46.738;7.622;2022-11-23T01:31:47;94024.13;;;6.19;56.60
30744;BME280;17486;46.738;7.622;2022-11-23T01:34:13;94002.44;;;6.06;56.35
30744;BME280;17486;46.738;7.622;2022-11-23T01:36:39;93989.75;;;6.01;56.46
30744;BME280;17486;46.738;7.622;2022-11-23T01:39:05;94028.28;;;6.22;56.52
30744;BME280;17486;46.738;7.622;2022-11-23T01:41:33;94036.94;;;6.21;56.52
30744;BME280;17486;46.738;7.622;2022-11-23T01:43:59;94019.25;;;6.13;56.32
30744;BME280;17486;46.738;7.622;2022-11-23T01:46:24;94005.41;;;5.98;56.21
30744;BME280;17486;46.738;7.622;2022-11-23T01:49:08;94024.25;;;6.00;55.88
30744;BME280;17486;46.738;7.622;2022-11-23T01:51:39;94033.41;;;6.06;56.14
30744;BME280;17486;46.738;7.622;2022-11-23T01:54:09;94026.50;;;6.06;56.00
30744;BME280;17486;46.738;7.622;2022-11-23T01:56:39;94035.31;;;6.02;55.96
30744;BME280;17486;46.738;7.622;2022-11-23T01:59:10;94018.38;;;5.96;56.09
30744;BME280;17486;46.738;7.622;2022-11-23T02:01:36;94027.56;;;6.02;56.05
30744;BME280;17486;46.738;7.622;2022-11-23T02:04:02;94037.91;;;6.02;55.83
30744;BME280;17486;46.738;7.622;2022-11-23T02:06:28;93996.03;;;5.79;56.50
30744;BME280;17486;46.738;7.622;2022-11-23T02:08:55;94038.88;;;6.00;56.23
30744;BME280;17486;46.738;7.622;2022-11-23T02:11:21;94042.22;;;6.02;55.81
30744;BME280;17486;46.738;7.622;2022-11-23T02:13:49;93999.41;;;5.80;56.50
30744;BME280;17486;46.738;7.622;2022-11-23T02:16:16;94031.22;;;5.98;56.20
30744;BME280;17486;46.738;7.622;2022-11-23T02:18:44;94036.44;;;5.96;56.25
30744;BME280;17486;46.738;7.622;2022-11-23T02:21:11;93995.00;;;5.66;56.60
30744;BME280;17486;46.738;7.622;2022-11-23T02:26:30;94035.72;;;5.77;56.52
30744;BME280;17486;46.738;7.622;2022-11-23T02:31:32;94030.63;;;5.75;56.57
30744;BME280;17486;46.738;7.622;2022-11-23T02:33:57;94027.19;;;5.75;56.76
30744;BME280;17486;46.738;7.622;2022-11-23T02:36:28;94039.28;;;5.74;56.40
30744;BME280;17486;46.738;7.622;2022-11-23T02:38:58;94024.00;;;5.70;56.46
30744;BME280;17486;46.738;7.622;2022-11-23T02:41:24;94030.41;;;5.62;56.81
30744;BME280;17486;46.738;7.622;2022-11-23T02:43:52;94018.19;;;5.66;56.78
30744;BME280;17486;46.738;7.622;2022-11-23T02:46:18;93981.72;;;5.39;57.23
30744;BME280;17486;46.738;7.622;2022-11-23T02:48:44;94030.69;;;5.56;56.35
30744;BME280;17486;46.738;7.622;2022-11-23T02:51:09;93990.38;;;5.38;56.92
30744;BME280;17486;46.738;7.622;2022-11-23T02:53:35;94027.38;;;5.54;56.65
30744;BME280;17486;46.738;7.622;2022-11-23T02:56:00;93988.16;;;5.30;56.99
30744;BME280;17486;46.738;7.622;2022-11-23T02:58:25;93990.13;;;5.25;56.74
30744;BME280;17486;46.738;7.622;2022-11-23T03:00:51;93988.47;;;5.24;57.13
30744;BME280;17486;46.738;7.622;2022-11-23T03:03:16;94028.59;;;5.47;56.51
30744;BME280;17486;46.738;7.622;2022-11-23T03:05:43;93980.72;;;5.24;56.36
30744;BME280;17486;46.738;7.622;2022-11-23T03:08:08;94010.84;;;5.41;56.92
30744;BME280;17486;46.738;7.622;2022-11-23T03:10:33;94010.09;;;5.39;56.29
30744;BME280;17486;46.738;7.622;2022-11-23T03:12:59;94009.47;;;5.34;56.58
30744;BME280;17486;46.738;7.622;2022-11-23T03:15:24;93983.47;;;5.21;56.37
30744;BME280;17486;46.738;7.622;2022-11-23T03:17:50;94003.56;;;5.31;56.90
30744;BME280;17486;46.738;7.622;2022-11-23T03:20:15;93985.66;;;5.28;56.94
30744;BME280;17486;46.738;7.622;2022-11-23T03:22:41;94002.56;;;5.34;56.24
30744;BME280;17486;46.738;7.622;2022-11-23T03:25:07;93968.28;;;5.14;56.12
30744;BME280;17486;46.738;7.622;2022-11-23T03:27:32;93956.47;;;5.10;55.81
30744;BME280;17486;46.738;7.622;2022-11-23T03:29:59;93962.31;;;5.14;56.12
30744;BME280;17486;46.738;7.622;2022-11-23T03:32:24;93958.00;;;5.14;56.17
30744;BME280;17486;46.738;7.622;2022-11-23T03:34:50;93981.94;;;5.34;55.88
30744;BME280;17486;46.738;7.622;2022-11-23T03:37:15;93952.84;;;5.14;55.95
30744;BME280;17486;46.738;7.622;2022-11-23T03:39:41;93973.59;;;5.29;56.46
30744;BME280;17486;46.738;7.622;2022-11-23T03:42:06;93952.84;;;5.14;56.36
30744;BME280;17486;46.738;7.622;2022-11-23T03:44:32;93979.75;;;5.26;56.46
30744;BME280;17486;46.738;7.622;2022-11-23T03:46:57;93968.00;;;5.21;56.35
30744;BME280;17486;46.738;7.622;2022-11-23T03:49:23;93949.13;;;5.03;56.58
30744;BME280;17486;46.738;7.622;2022-11-23T03:51:49;93985.28;;;5.19;56.24
30744;BME280;17486;46.738;7.622;2022-11-23T03:54:14;93977.63;;;5.17;56.20
30744;BME280;17486;46.738;7.622;2022-11-23T03:56:39;93988.00;;;5.15;56.25
30744;BME280;17486;46.738;7.622;2022-11-23T03:59:05;93932.44;;;4.92;56.51
30744;BME280;17486;46.738;7.622;2022-11-23T04:01:30;93952.69;;;5.00;56.77
30744;BME280;17486;46.738;7.622;2022-11-23T04:03:56;93923.03;;;4.74;56.43
30744;BME280;17486;46.738;7.622;2022-11-23T04:06:21;93939.72;;;4.84;56.49
30744;BME280;17486;46.738;7.622;2022-11-23T04:08:46;93920.38;;;4.75;56.76
30744;BME280;17486;46.738;7.622;2022-11-23T04:11:12;93944.88;;;4.84;57.01
30744;BME280;17486;46.738;7.622;2022-11-23T04:13:37;93937.50;;;4.76;57.22
30744;BME280;17486;46.738;7.622;2022-11-23T04:16:03;93960.84;;;4.91;57.14
30744;BME280;17486;46.738;7.622;2022-11-23T04:18:29;93960.94;;;4.89;57.40
30744;BME280;17486;46.738;7.622;2022-11-23T04:20:54;93956.00;;;4.85;57.30
30744;BME280;17486;46.738;7.622;2022-11-23T04:23:19;93909.88;;;4.62;57.23
30744;BME280;17486;46.738;7.622;2022-11-23T04:25:45;93936.69;;;4.76;57.19
30744;BME280;17486;46.738;7.622;2022-11-23T04:28:10;93939.97;;;4.79;57.16
30744;BME280;17486;46.738;7.622;2022-11-23T04:30:36;93939.34;;;4.74;57.88
30744;BME280;17486;46.738;7.622;2022-11-23T04:33:01;93911.75;;;4.59;57.75
30744;BME280;17486;46.738;7.622;2022-11-23T04:35:26;93930.91;;;4.71;57.38
30744;BME280;17486;46.738;7.622;2022-11-23T04:37:52;93929.31;;;4.68;57.85
30744;BME280;17486;46.738;7.622;2022-11-23T04:40:17;93925.31;;;4.62;57.69
30744;BME280;17486;46.738;7.622;2022-11-23T04:42:43;93926.41;;;4.57;57.49
30744;BME280;17486;46.738;7.622;2022-11-23T04:45:08;93924.09;;;4.52;57.95
30744;BME280;17486;46.738;7.622;2022-11-23T04:47:35;93927.75;;;4.46;57.85
30744;BME280;17486;46.738;7.622;2022-11-23T04:50:00;93916.91;;;4.40;58.41
30744;BME280;17486;46.738;7.622;2022-11-23T04:52:26;93916.72;;;4.44;57.89
30744;BME280;17486;46.738;7.622;2022-11-23T04:54:51;93911.69;;;4.41;58.14
30744;BME280;17486;46.738;7.622;2022-11-23T04:57:17;93925.41;;;4.42;58.27
30744;BME280;17486;46.738;7.622;2022-11-23T04:59:42;93916.38;;;4.33;58.03
30744;BME280;17486;46.738;7.622;2022-11-23T05:02:07;93923.75;;;4.41;57.69
30744;BME280;17486;46.738;7.622;2022-11-23T05:04:33;93924.56;;;4.41;57.82
30744;BME280;17486;46.738;7.622;2022-11-23T05:06:58;93895.44;;;4.22;57.75
30744;BME280;17486;46.738;7.622;2022-11-23T05:09:24;93928.06;;;4.40;57.47
30744;BME280;17486;46.738;7.622;2022-11-23T05:11:49;93918.06;;;4.34;57.53
30744;BME280;17486;46.738;7.622;2022-11-23T05:14:14;93898.25;;;4.17;57.69
30744;BME280;17486;46.738;7.622;2022-11-23T05:16:40;93934.41;;;4.33;57.94
30744;BME280;17486;46.738;7.622;2022-11-23T05:19:05;93938.78;;;4.31;57.57
30744;BME280;17486;46.738;7.622;2022-11-23T05:21:31;93941.97;;;4.36;57.98
30744;BME280;17486;46.738;7.622;2022-11-23T05:23:56;93942.03;;;4.35;57.75
30744;BME280;17486;46.738;7.622;2022-11-23T05:26:21;93930.47;;;4.26;57.43
30744;BME280;17486;46.738;7.622;2022-11-23T05:28:47;93954.09;;;4.34;57.50
30744;BME280;17486;46.738;7.622;2022-11-23T05:31:12;93916.47;;;4.12;57.38
30744;BME280;17486;46.738;7.622;2022-11-23T05:33:38;93914.88;;;4.10;57.40
30744;BME280;17486;46.738;7.622;2022-11-23T05:36:03;93958.59;;;4.29;57.75
30744;BME280;17486;46.738;7.622;2022-11-23T05:38:29;93957.84;;;4.27;57.79
30744;BME280;17486;46.738;7.622;2022-11-23T05:40:54;93966.69;;;4.21;57.85
30744;BME280;17486;46.738;7.622;2022-11-23T05:43:20;93958.41;;;4.14;57.57
30744;BME280;17486;46.738;7.622;2022-11-23T05:45:45;93961.81;;;4.15;57.68
30744;BME280;17486;46.738;7.622;2022-11-23T05:48:10;93981.56;;;4.14;57.57
30744;BME280;17486;46.738;7.622;2022-11-23T05:50:37;93990.44;;;4.07;58.10
30744;BME280;17486;46.738;7.622;2022-11-23T05:53:02;93975.16;;;4.04;58.30
30744;BME280;17486;46.738;7.622;2022-11-23T05:55:27;93956.03;;;3.91;57.84
30744;BME280;17486;46.738;7.622;2022-11-23T05:57:53;93939.91;;;3.87;58.37
30744;BME280;17486;46.738;7.622;2022-11-23T06:00:19;93974.25;;;4.05;58.18
30744;BME280;17486;46.738;7.622;2022-11-23T06:02:44;93970.69;;;3.89;58.03
30744;BME280;17486;46.738;7.622;2022-11-23T06:05:10;93961.44;;;3.85;58.21
30744;BME280;17486;46.738;7.622;2022-11-23T06:07:35;94001.44;;;3.92;58.38
30744;BME280;17486;46.738;7.622;2022-11-23T06:10:02;93993.13;;;3.85;58.38
30744;BME280;17486;46.738;7.622;2022-11-23T06:12:28;93961.75;;;3.58;58.66
30744;BME280;17486;46.738;7.622;2022-11-23T06:14:54;93988.53;;;3.73;58.63
30744;BME280;17486;46.738;7.622;2022-11-23T06:17:19;94000.44;;;3.75;58.70
30744;BME280;17486;46.738;7.622;2022-11-23T06:19:45;93997.06;;;3.73;58.83
30744;BME280;17486;46.738;7.622;2022-11-23T06:22:11;93988.59;;;3.71;58.87
30744;BME280;17486;46.738;7.622;2022-11-23T06:24:36;93963.81;;;3.49;59.14
30744;BME280;17486;46.738;7.622;2022-11-23T06:27:01;93949.50;;;3.44;59.19
30744;BME280;17486;46.738;7.622;2022-11-23T06:29:27;93996.44;;;3.68;59.16
30744;BME280;17486;46.738;7.622;2022-11-23T06:31:52;93992.06;;;3.70;59.10
30744;BME280;17486;46.738;7.622;2022-11-23T06:34:19;93993.59;;;3.74;59.19
30744;BME280;17486;46.738;7.622;2022-11-23T06:36:44;93981.63;;;3.73;59.13
30744;BME280;17486;46.738;7.622;2022-11-23T06:39:09;93985.81;;;3.76;58.69
30744;BME280;17486;46.738;7.622;2022-11-23T06:41:35;93984.09;;;3.76;58.75
30744;BME280;17486;46.738;7.622;2022-11-23T06:44:00;93955.69;;;3.59;58.83
30744;BME280;17486;46.738;7.622;2022-11-23T06:46:26;93982.44;;;3.75;59.08
30744;BME280;17486;46.738;7.622;2022-11-23T06:48:51;93966.44;;;3.69;58.62
30744;BME280;17486;46.738;7.622;2022-11-23T06:51:17;93995.13;;;3.78;58.71
30744;BME280;17486;46.738;7.622;2022-11-23T06:53:42;93959.06;;;3.61;58.58
30744;BME280;17486;46.738;7.622;2022-11-23T06:56:08;93984.81;;;3.80;58.46
30744;BME280;17486;46.738;7.622;2022-11-23T06:58:34;93954.06;;;3.58;58.22
30744;BME280;17486;46.738;7.622;2022-11-23T07:01:04;93986.69;;;3.76;58.25
30744;BME280;17486;46.738;7.622;2022-11-23T07:03:30;93992.53;;;3.80;58.30
30744;BME280;17486;46.738;7.622;2022-11-23T07:05:56;93985.63;;;3.80;57.96
30744;BME280;17486;46.738;7.622;2022-11-23T07:08:21;94011.09;;;3.87;58.04
30744;BME280;17486;46.738;7.622;2022-11-23T07:10:47;94016.22;;;3.87;58.02
30744;BME280;17486;46.738;7.622;2022-11-23T07:13:13;93969.19;;;3.64;58.05
30744;BME280;17486;46.738;7.622;2022-11-23T07:15:39;94012.88;;;3.85;58.08
30744;BME280;17486;46.738;7.622;2022-11-23T07:18:05;94014.00;;;3.79;58.11
30744;BME280;17486;46.738;7.622;2022-11-23T07:20:32;94010.44;;;3.81;57.91
30744;BME280;17486;46.738;7.622;2022-11-23T07:22:59;93980.44;;;3.61;57.95
30744;BME280;17486;46.738;7.622;2022-11-23T07:25:25;94014.88;;;3.78;57.79
30744;BME280;17486;46.738;7.622;2022-11-23T07:28:01;93986.44;;;3.62;58.13
30744;BME280;17486;46.738;7.622;2022-11-23T07:30:28;94016.34;;;3.84;58.07
30744;BME280;17486;46.738;7.622;2022-11-23T07:32:58;94023.94;;;3.87;57.72
30744;BME280;17486;46.738;7.622;2022-11-23T07:35:25;94017.84;;;3.89;58.03
30744;BME280;17486;46.738;7.622;2022-11-23T07:37:50;94026.38;;;3.90;57.76
30744;BME280;17486;46.738;7.622;2022-11-23T07:40:15;94025.41;;;3.92;57.80
30744;BME280;17486;46.738;7.622;2022-11-23T07:42:41;93993.59;;;3.74;58.14
30744;BME280;17486;46.738;7.622;2022-11-23T07:45:07;93988.69;;;3.70;57.77
30744;BME280;17486;46.738;7.622;2022-11-23T07:47:33;94021.63;;;3.80;58.08
30744;BME280;17486;46.738;7.622;2022-11-23T07:49:58;94024.59;;;3.92;58.32
30744;BME280;17486;46.738;7.622;2022-11-23T07:52:24;94008.38;;;3.90;58.18
30744;BME280;17486;46.738;7.622;2022-11-23T07:54:49;93982.25;;;3.80;58.30
30744;BME280;17486;46.738;7.622;2022-11-23T07:57:15;94004.28;;;4.05;57.80
30744;BME280;17486;46.738;7.622;2022-11-23T07:59:40;94002.81;;;3.99;57.69
30744;BME280;17486;46.738;7.622;2022-11-23T08:02:09;94013.59;;;4.07;58.04
30744;BME280;17486;46.738;7.622;2022-11-23T08:04:37;94011.50;;;3.96;57.32
30744;BME280;17486;46.738;7.622;2022-11-23T08:07:02;93984.75;;;3.81;57.74
30744;BME280;17486;46.738;7.622;2022-11-23T08:09:28;93979.06;;;3.73;57.56
30744;BME280;17486;46.738;7.622;2022-11-23T08:11:53;94015.91;;;3.94;57.74
30744;BME280;17486;46.738;7.622;2022-11-23T08:14:18;93983.22;;;3.77;57.53
30744;BME280;17486;46.738;7.622;2022-11-23T08:16:47;93983.06;;;3.80;58.09
30744;BME280;17486;46.738;7.622;2022-11-23T08:19:13;94008.44;;;4.07;57.69
30744;BME280;17486;46.738;7.622;2022-11-23T08:21:39;93962.72;;;3.95;57.90
30744;BME280;17486;46.738;7.622;2022-11-23T08:24:04;93955.47;;;4.03;57.19
30744;BME280;17486;46.738;7.622;2022-11-23T08:26:30;93968.16;;;4.08;57.08
30744;BME280;17486;46.738;7.622;2022-11-23T08:28:55;93982.56;;;4.31;55.38
30744;BME280;17486;46.738;7.622;2022-11-23T08:31:21;93969.31;;;4.20;55.68
30744;BME280;17486;46.738;7.622;2022-11-23T08:33:47;93998.94;;;4.47;54.86
30744;BME280;17486;46.738;7.622;2022-11-23T08:36:12;93967.69;;;4.36;54.49
30744;BME280;17486;46.738;7.622;2022-11-23T08:38:37;93972.38;;;4.47;53.58
30744;BME280;17486;46.738;7.622;2022-11-23T08:41:03;93996.97;;;4.72;52.93
30744;BME280;17486;46.738;7.622;2022-11-23T08:43:29;94004.47;;;4.76;53.68
30744;BME280;17486;46.738;7.622;2022-11-23T08:45:56;93991.22;;;4.84;53.06
30744;BME280;17486;46.738;7.622;2022-11-23T08:48:22;93994.88;;;4.97;53.24
30744;BME280;17486;46.738;7.622;2022-11-23T08:50:48;93988.38;;;5.08;52.47
30744;BME280;17486;46.738;7.622;2022-11-23T08:53:13;93959.97;;;4.92;52.38
30744;BME280;17486;46.738;7.622;2022-11-23T08:55:39;93997.13;;;5.23;51.91
30744;BME280;17486;46.738;7.622;2022-11-23T08:58:04;93972.91;;;5.08;51.75
30744;BME280;17486;46.738;7.622;2022-11-23T09:00:31;93981.56;;;5.07;50.97
30744;BME280;17486;46.738;7.622;2022-11-23T09:02:58;93982.25;;;5.10;51.18
30744;BME280;17486;46.738;7.622;2022-11-23T09:05:24;93986.81;;;5.23;50.68
30744;BME280;17486;46.738;7.622;2022-11-23T09:07:49;94013.56;;;5.55;50.64
30744;BME280;17486;46.738;7.622;2022-11-23T09:10:15;93973.75;;;5.43;51.03
30744;BME280;17486;46.738;7.622;2022-11-23T09:12:41;93963.91;;;5.52;50.56
30744;BME280;17486;46.738;7.622;2022-11-23T09:15:06;94013.44;;;5.92;50.25
30744;BME280;17486;46.738;7.622;2022-11-23T09:17:32;93985.91;;;5.92;50.38
30744;BME280;17486;46.738;7.622;2022-11-23T09:19:58;93994.00;;;6.20;50.77
30744;BME280;17486;46.738;7.622;2022-11-23T09:22:24;94006.56;;;6.26;50.01
30744;BME280;17486;46.738;7.622;2022-11-23T09:24:49;93987.75;;;6.40;50.46
30744;BME280;17486;46.738;7.622;2022-11-23T09:27:14;94010.34;;;6.68;50.32
30744;BME280;17486;46.738;7.622;2022-11-23T09:29:40;93983.16;;;6.61;50.16
30744;BME280;17486;46.738;7.622;2022-11-23T09:32:05;93983.25;;;6.75;49.87
30744;BME280;17486;46.738;7.622;2022-11-23T09:34:30;94013.31;;;7.08;50.02
30744;BME280;17486;46.738;7.622;2022-11-23T09:36:56;94012.53;;;7.22;50.05
30744;BME280;17486;46.738;7.622;2022-11-23T09:39:22;94017.66;;;7.38;50.26
30744;BME280;17486;46.738;7.622;2022-11-23T09:45:13;94026.91;;;7.87;49.29
30744;BME280;17486;46.738;7.622;2022-11-23T09:51:13;94023.81;;;8.11;48.53
30744;BME280;17486;46.738;7.622;2022-11-23T09:53:47;94031.31;;;8.30;47.70
30744;BME280;17486;46.738;7.622;2022-11-23T09:56:23;93988.66;;;8.21;47.74
30744;BME280;17486;46.738;7.622;2022-11-23T09:58:54;93990.16;;;8.40;47.33
30744;BME280;17486;46.738;7.622;2022-11-23T10:01:20;94017.03;;;8.81;46.62
30744;BME280;17486;46.738;7.622;2022-11-23T10:03:46;93988.53;;;8.81;45.78
30744;BME280;17486;46.738;7.622;2022-11-23T10:06:22;94025.22;;;9.02;45.29
30744;BME280;17486;46.738;7.622;2022-11-23T10:23:06;94010.91;;;8.82;43.07
30744;BME280;17486;46.738;7.622;2022-11-23T10:25:50;94003.78;;;8.85;43.26
30744;BME280;17486;46.738;7.622;2022-11-23T10:28:19;93997.72;;;8.99;43.95
30744;BME280;17486;46.738;7.622;2022-11-23T10:31:00;93997.06;;;9.23;43.79
30744;BME280;17486;46.738;7.622;2022-11-23T10:33:37;93996.19;;;9.50;43.89
30744;BME280;17486;46.738;7.622;2022-11-23T10:36:04;93998.84;;;9.75;43.46
30744;BME280;17486;46.738;7.622;2022-11-23T10:38:30;93992.41;;;9.94;43.17
30744;BME280;17486;46.738;7.622;2022-11-23T10:41:11;93978.41;;;10.09;42.69
30744;BME280;17486;46.738;7.622;2022-11-23T10:46:26;93960.81;;;10.26;41.42
30744;BME280;17486;46.738;7.622;2022-11-23T10:48:53;93979.59;;;10.55;40.22
30744;BME280;17486;46.738;7.622;2022-11-23T10:51:26;93973.22;;;10.72;40.22
30744;BME280;17486;46.738;7.622;2022-11-23T10:54:01;93959.84;;;10.90;40.02
30744;BME280;17486;46.738;7.622;2022-11-23T10:56:28;93934.63;;;11.03;39.43
30744;BME280;17486;46.738;7.622;2022-11-23T10:58:54;93966.69;;;11.39;39.29
30744;BME280;17486;46.738;7.622;2022-11-23T11:01:28;93940.81;;;11.49;39.43
30744;BME280;17486;46.738;7.622;2022-11-23T11:04:01;93953.44;;;11.89;39.09
30744;BME280;17486;46.738;7.622;2022-11-23T11:06:30;93940.84;;;12.19;38.99
30744;BME280;17486;46.738;7.622;2022-11-23T11:09:00;93951.63;;;12.37;38.17
30744;BME280;17486;46.738;7.622;2022-11-23T11:11:31;93923.75;;;12.49;37.84
30744;BME280;17486;46.738;7.622;2022-11-23T11:16:51;93922.38;;;12.88;36.81
30744;BME280;17486;46.738;7.622;2022-11-23T11:19:31;93939.47;;;13.14;36.61
30744;BME280;17486;46.738;7.622;2022-11-23T11:21:59;93935.13;;;13.35;36.39
30744;BME280;17486;46.738;7.622;2022-11-23T11:24:35;93941.47;;;13.54;36.04
30744;BME280;17486;46.738;7.622;2022-11-23T11:27:05;93934.41;;;13.66;35.48
30744;BME280;17486;46.738;7.622;2022-11-23T11:34:50;93932.28;;;13.81;35.35
30744;BME280;17486;46.738;7.622;2022-11-23T11:40:21;93933.44;;;14.09;34.46
30744;BME280;17486;46.738;7.622;2022-11-23T11:43:10;93926.31;;;14.21;34.55
30744;BME280;17486;46.738;7.622;2022-11-23T11:45:46;93920.75;;;14.35;34.54
30744;BME280;17486;46.738;7.622;2022-11-23T11:48:19;93909.38;;;14.56;34.64
30744;BME280;17486;46.738;7.622;2022-11-23T11:50:51;93919.41;;;14.82;34.44
30744;BME280;17486;46.738;7.622;2022-11-23T11:53:22;93920.38;;;14.90;33.87
30744;BME280;17486;46.738;7.622;2022-11-23T11:58:25;93912.13;;;15.15;32.13
30744;BME280;17486;46.738;7.622;2022-11-23T12:01:02;93890.22;;;15.16;32.62
30744;BME280;17486;46.738;7.622;2022-11-23T12:03:48;93907.44;;;15.28;31.54
30744;BME280;17486;46.738;7.622;2022-11-23T12:06:24;93893.94;;;15.23;31.69
30744;BME280;17486;46.738;7.622;2022-11-23T12:09:26;93918.47;;;15.51;31.85
30744;BME280;17486;46.738;7.622;2022-11-23T12:11:55;93910.03;;;15.67;30.78
30744;BME280;17486;46.738;7.622;2022-11-23T12:14:22;93897.59;;;15.69;30.88
30744;BME280;17486;46.738;7.622;2022-11-23T12:16:58;93925.31;;;16.01;29.96
30744;BME280;17486;46.738;7.622;2022-11-23T12:19:58;93909.03;;;16.07;30.38
30744;BME280;17486;46.738;7.622;2022-11-23T12:22:43;93907.66;;;15.94;30.01
30744;BME280;17486;46.738;7.622;2022-11-23T12:31:25;93882.06;;;15.09;30.46
30744;BME280;17486;46.738;7.622;2022-11-23T12:34:05;93913.59;;;14.88;30.62
30744;BME280;17486;46.738;7.622;2022-11-23T12:36:42;93912.28;;;14.63;31.41
30744;BME280;17486;46.738;7.622;2022-11-23T12:42:23;93922.59;;;14.14;31.22
30744;BME280;17486;46.738;7.622;2022-11-23T12:45:14;93878.56;;;13.24;31.49
30744;BME280;17486;46.738;7.622;2022-11-23T12:50:49;93909.91;;;12.92;33.06
30744;BME280;17486;46.738;7.622;2022-11-23T12:58:45;93908.03;;;12.27;34.15
30744;BME280;17486;46.738;7.622;2022-11-23T13:01:23;93873.31;;;12.04;34.35
30744;BME280;17486;46.738;7.622;2022-11-23T13:04:12;93906.34;;;12.04;34.86
30744;BME280;17486;46.738;7.622;2022-11-23T13:14:57;93907.53;;;12.00;35.47
30744;BME280;17486;46.738;7.622;2022-11-23T13:17:59;93901.50;;;11.99;35.98
30744;BME280;17486;46.738;7.622;2022-11-23T13:22:58;93891.88;;;12.00;35.96
30744;BME280;17486;46.738;7.622;2022-11-23T13:25:27;93867.22;;;11.81;35.94
30744;BME280;17486;46.738;7.622;2022-11-23T13:27:56;93907.78;;;11.97;35.53
30744;BME280;17486;46.738;7.622;2022-11-23T13:40:42;93911.31;;;11.96;35.06
30744;BME280;17486;46.738;7.622;2022-11-23T13:55:05;93903.56;;;11.60;36.28
30744;BME280;17486;46.738;7.622;2022-11-23T13:57:39;93901.44;;;11.65;36.66
30744;BME280;17486;46.738;7.622;2022-11-23T14:03:46;93886.63;;;11.54;36.54
30744;BME280;17486;46.738;7.622;2022-11-23T14:08:53;93902.75;;;11.24;37.13
30744;BME280;17486;46.738;7.622;2022-11-23T14:11:24;93882.34;;;11.06;37.00
30744;BME280;17486;46.738;7.622;2022-11-23T14:13:55;93873.91;;;10.91;37.38
30744;BME280;17486;46.738;7.622;2022-11-23T14:20:12;93871.81;;;10.97;37.84
30744;BME280;17486;46.738;7.622;2022-11-23T14:30:42;93869.03;;;10.87;37.52
30744;BME280;17486;46.738;7.622;2022-11-23T14:41:36;93899.53;;;10.85;36.76
30744;BME280;17486;46.738;7.622;2022-11-23T14:44:04;93898.09;;;10.81;36.94
30744;BME280;17486;46.738;7.622;2022-11-23T14:46:30;93917.25;;;10.80;37.64
30744;BME280;17486;46.738;7.622;2022-11-23T14:49:06;93912.88;;;10.80;37.82
30744;BME280;17486;46.738;7.622;2022-11-23T14:51:33;93916.19;;;10.82;37.88
30744;BME280;17486;46.738;7.622;2022-11-23T14:54:00;93927.41;;;10.83;38.04
30744;BME280;17486;46.738;7.622;2022-11-23T14:56:31;93907.03;;;10.76;38.58
30744;BME280;17486;46.738;7.622;2022-11-23T14:59:09;93919.72;;;10.81;38.42
30744;BME280;17486;46.738;7.622;2022-11-23T15:01:44;93895.88;;;10.63;38.22
30744;BME280;17486;46.738;7.622;2022-11-23T15:04:32;93928.69;;;10.77;39.04
30744;BME280;17486;46.738;7.622;2022-11-23T15:07:16;93923.75;;;10.61;39.61
30744;BME280;17486;46.738;7.622;2022-11-23T15:09:49;93905.50;;;10.50;39.25
30744;BME280;17486;46.738;7.622;2022-11-23T15:14:44;93959.94;;;10.64;40.19